sensor_id;sensor_type;location;lat;lon;timestamp;P1;durP1;ratioP1;P2;durP2;ratioP2
48987;SDS011;34799;51.440;-2.534;2024-02-26T00:00:17;3.17;;;1.17;;
48987;SDS011;34799;51.440;-2.534;2024-02-26T00:02:54;2.60;;;0.50;;
48987;SDS011;34799;51.440;-2.534;2024-02-26T00:05:27;2.78;;;0.50;;
48987;SDS011;34799;51.440;-2.534;2024-02-26T00:08:07;1.30;;;0.50;;
48987;SDS011;34799;51.440;-2.534;2024-02-26T00:17:19;1.98;;;0.63;;
48987;SDS011;34799;51.440;-2.534;2024-02-26T00:19:53;4.00;;;0.70;;
48987;SDS011;34799;51.440;-2.534;2024-02-26T00:23:07;1.73;;;0.60;;
48987;SDS011;34799;51.440;-2.534;2024-02-26T00:26:05;2.97;;;0.50;;
48987;SDS011;34799;51.440;-2.534;2024-02-26T00:28:38;1.63;;;0.50;;
48987;SDS011;34799;51.440;-2.534;2024-02-26T00:31:18;3.13;;;0.63;;
48987;SDS011;34799;51.440;-2.534;2024-02-26T00:33:50;3.17;;;0.60;;
48987;SDS011;34799;51.440;-2.534;2024-02-26T00:36:35;1.92;;;0.50;;
48987;SDS011;34799;51.440;-2.534;2024-02-26T00:39:11;2.15;;;0.55;;
48987;SDS011;34799;51.440;-2.534;2024-02-26T00:41:43;1.48;;;0.50;;
48987;SDS011;34799;51.440;-2.534;2024-02-26T00:44:14;2.28;;;0.55;;
48987;SDS011;34799;51.440;-2.534;2024-02-26T00:46:48;3.80;;;0.50;;
48987;SDS011;34799;51.440;-2.534;2024-02-26T00:49:20;3.45;;;0.70;;
48987;SDS011;34799;51.440;-2.534;2024-02-26T00:52:00;5.93;;;0.60;;
48987;SDS011;34799;51.440;-2.534;2024-02-26T00:54:41;1.60;;;0.60;;
48987;SDS011;34799;51.440;-2.534;2024-02-26T00:57:15;2.20;;;0.82;;
48987;SDS011;34799;51.440;-2.534;2024-02-26T00:59:50;4.70;;;0.57;;
48987;SDS011;34799;51.440;-2.534;2024-02-26T01:02:22;1.75;;;0.30;;
48987;SDS011;34799;51.440;-2.534;2024-02-26T01:04:54;2.60;;;0.50;;
48987;SDS011;34799;51.440;-2.534;2024-02-26T01:09:59;2.42;;;0.40;;
48987;SDS011;34799;51.440;-2.534;2024-02-26T01:12:45;1.10;;;0.40;;
48987;SDS011;34799;51.440;-2.534;2024-02-26T01:15:28;1.33;;;0.40;;
48987;SDS011;34799;51.440;-2.534;2024-02-26T01:18:19;1.15;;;0.40;;
48987;SDS011;34799;51.440;-2.534;2024-02-26T01:20:58;2.03;;;0.50;;
48987;SDS011;34799;51.440;-2.534;2024-02-26T01:23:35;4.40;;;0.70;;
48987;SDS011;34799;51.440;-2.534;2024-02-26T01:26:13;6.38;;;0.60;;
48987;SDS011;34799;51.440;-2.534;2024-02-26T01:28:42;2.22;;;0.50;;
48987;SDS011;34799;51.440;-2.534;2024-02-26T01:31:22;4.63;;;0.40;;
48987;SDS011;34799;51.440;-2.534;2024-02-26T01:33:51;4.45;;;0.52;;
48987;SDS011;34799;51.440;-2.534;2024-02-26T01:36:26;3.05;;;0.50;;
48987;SDS011;34799;51.440;-2.534;2024-02-26T01:38:54;2.53;;;0.45;;
48987;SDS011;34799;51.440;-2.534;2024-02-26T01:41:25;2.67;;;0.65;;
48987;SDS011;34799;51.440;-2.534;2024-02-26T01:43:57;2.20;;;0.57;;
48987;SDS011;34799;51.440;-2.534;2024-02-26T01:46:33;1.52;;;0.55;;
48987;SDS011;34799;51.440;-2.534;2024-02-26T01:49:08;1.88;;;0.60;;
48987;SDS011;34799;51.440;-2.534;2024-02-26T01:55:25;3.25;;;0.77;;
48987;SDS011;34799;51.440;-2.534;2024-02-26T01:58:07;4.28;;;0.77;;
48987;SDS011;34799;51.440;-2.534;2024-02-26T02:00:40;3.90;;;0.98;;
48987;SDS011;34799;51.440;-2.534;2024-02-26T02:03:15;5.05;;;0.60;;
48987;SDS011;34799;51.440;-2.534;2024-02-26T02:06:08;4.22;;;0.60;;
48987;SDS011;34799;51.440;-2.534;2024-02-26T02:09:09;4.78;;;0.90;;
48987;SDS011;34799;51.440;-2.534;2024-02-26T02:11:41;4.70;;;0.80;;
48987;SDS011;34799;51.440;-2.534;2024-02-26T02:14:22;0.95;;;0.65;;
48987;SDS011;34799;51.440;-2.534;2024-02-26T02:16:52;3.50;;;0.60;;
48987;SDS011;34799;51.440;-2.534;2024-02-26T02:19:25;7.13;;;1.17;;
48987;SDS011;34799;51.440;-2.534;2024-02-26T02:22:07;3.65;;;1.13;;
48987;SDS011;34799;51.440;-2.534;2024-02-26T02:25:07;3.40;;;0.80;;
48987;SDS011;34799;51.440;-2.534;2024-02-26T02:28:02;2.85;;;0.65;;
48987;SDS011;34799;51.440;-2.534;2024-02-26T02:30:45;2.17;;;0.63;;
48987;SDS011;34799;51.440;-2.534;2024-02-26T02:33:25;3.53;;;0.75;;
48987;SDS011;34799;51.440;-2.534;2024-02-26T02:36:01;2.47;;;0.80;;
48987;SDS011;34799;51.440;-2.534;2024-02-26T02:39:23;2.40;;;0.55;;
48987;SDS011;34799;51.440;-2.534;2024-02-26T02:42:15;11.43;;;1.52;;
48987;SDS011;34799;51.440;-2.534;2024-02-26T02:45:27;3.95;;;0.70;;
48987;SDS011;34799;51.440;-2.534;2024-02-26T02:48:21;1.77;;;0.70;;
48987;SDS011;34799;51.440;-2.534;2024-02-26T02:50:53;2.15;;;0.90;;
48987;SDS011;34799;51.440;-2.534;2024-02-26T02:53:33;2.25;;;0.70;;
48987;SDS011;34799;51.440;-2.534;2024-02-26T02:56:05;6.90;;;1.00;;
48987;SDS011;34799;51.440;-2.534;2024-02-26T02:58:34;2.38;;;0.90;;
48987;SDS011;34799;51.440;-2.534;2024-02-26T03:01:07;2.25;;;0.80;;
48987;SDS011;34799;51.440;-2.534;2024-02-26T03:03:48;3.80;;;0.80;;
48987;SDS011;34799;51.440;-2.534;2024-02-26T03:06:28;3.95;;;1.00;;
48987;SDS011;34799;51.440;-2.534;2024-02-26T03:09:12;2.78;;;0.47;;
48987;SDS011;34799;51.440;-2.534;2024-02-26T03:11:43;3.55;;;0.93;;
48987;SDS011;34799;51.440;-2.534;2024-02-26T03:14:27;1.80;;;0.43;;
48987;SDS011;34799;51.440;-2.534;2024-02-26T03:17:20;2.65;;;0.73;;
48987;SDS011;34799;51.440;-2.534;2024-02-26T03:20:03;4.28;;;0.60;;
48987;SDS011;34799;51.440;-2.534;2024-02-26T03:22:46;3.33;;;1.17;;
48987;SDS011;34799;51.440;-2.534;2024-02-26T03:25:29;3.50;;;0.70;;
48987;SDS011;34799;51.440;-2.534;2024-02-26T03:28:06;1.92;;;0.65;;
48987;SDS011;34799;51.440;-2.534;2024-02-26T03:30:56;1.23;;;0.47;;
48987;SDS011;34799;51.440;-2.534;2024-02-26T03:33:24;3.80;;;0.60;;
48987;SDS011;34799;51.440;-2.534;2024-02-26T03:36:02;7.05;;;0.70;;
48987;SDS011;34799;51.440;-2.534;2024-02-26T03:38:38;1.80;;;0.50;;
48987;SDS011;34799;51.440;-2.534;2024-02-26T03:41:08;4.43;;;0.50;;
48987;SDS011;34799;51.440;-2.534;2024-02-26T03:44:02;2.83;;;0.70;;
48987;SDS011;34799;51.440;-2.534;2024-02-26T03:47:03;4.45;;;0.50;;
48987;SDS011;34799;51.440;-2.534;2024-02-26T03:49:38;5.78;;;1.33;;
48987;SDS011;34799;51.440;-2.534;2024-02-26T03:52:10;3.83;;;0.40;;
48987;SDS011;34799;51.440;-2.534;2024-02-26T03:54:46;2.20;;;0.50;;
48987;SDS011;34799;51.440;-2.534;2024-02-26T03:57:14;2.95;;;0.50;;
48987;SDS011;34799;51.440;-2.534;2024-02-26T03:59:50;3.22;;;0.30;;
48987;SDS011;34799;51.440;-2.534;2024-02-26T04:02:39;4.00;;;0.60;;
48987;SDS011;34799;51.440;-2.534;2024-02-26T04:05:17;1.95;;;0.45;;
48987;SDS011;34799;51.440;-2.534;2024-02-26T04:07:58;2.22;;;0.52;;
48987;SDS011;34799;51.440;-2.534;2024-02-26T04:10:32;1.98;;;0.50;;
48987;SDS011;34799;51.440;-2.534;2024-02-26T04:13:07;2.60;;;0.85;;
48987;SDS011;34799;51.440;-2.534;2024-02-26T04:15:45;3.05;;;0.68;;
48987;SDS011;34799;51.440;-2.534;2024-02-26T04:18:20;4.57;;;0.75;;
48987;SDS011;34799;51.440;-2.534;2024-02-26T04:20:53;4.22;;;0.73;;
48987;SDS011;34799;51.440;-2.534;2024-02-26T04:23:21;4.60;;;0.70;;
48987;SDS011;34799;51.440;-2.534;2024-02-26T04:25:58;1.73;;;0.52;;
48987;SDS011;34799;51.440;-2.534;2024-02-26T04:28:42;3.30;;;0.55;;
48987;SDS011;34799;51.440;-2.534;2024-02-26T04:31:24;2.53;;;0.60;;
48987;SDS011;34799;51.440;-2.534;2024-02-26T04:34:12;5.82;;;0.70;;
48987;SDS011;34799;51.440;-2.534;2024-02-26T04:36:58;3.45;;;0.70;;
48987;SDS011;34799;51.440;-2.534;2024-02-26T04:39:37;3.65;;;0.75;;
48987;SDS011;34799;51.440;-2.534;2024-02-26T04:42:18;1.08;;;0.70;;
48987;SDS011;34799;51.440;-2.534;2024-02-26T04:44:57;3.03;;;0.50;;
48987;SDS011;34799;51.440;-2.534;2024-02-26T04:47:31;4.03;;;0.80;;
48987;SDS011;34799;51.440;-2.534;2024-02-26T04:53:01;2.25;;;1.00;;
48987;SDS011;34799;51.440;-2.534;2024-02-26T04:55:45;3.47;;;0.90;;
48987;SDS011;34799;51.440;-2.534;2024-02-26T04:58:13;3.03;;;0.80;;
48987;SDS011;34799;51.440;-2.534;2024-02-26T05:00:50;2.05;;;0.90;;
48987;SDS011;34799;51.440;-2.534;2024-02-26T05:03:25;5.10;;;1.10;;
48987;SDS011;34799;51.440;-2.534;2024-02-26T05:06:10;3.30;;;1.15;;
48987;SDS011;34799;51.440;-2.534;2024-02-26T05:08:57;5.80;;;1.20;;
48987;SDS011;34799;51.440;-2.534;2024-02-26T05:11:26;3.30;;;1.10;;
48987;SDS011;34799;51.440;-2.534;2024-02-26T05:14:24;3.72;;;1.08;;
48987;SDS011;34799;51.440;-2.534;2024-02-26T05:16:53;4.00;;;1.40;;
48987;SDS011;34799;51.440;-2.534;2024-02-26T05:19:36;4.63;;;1.95;;
48987;SDS011;34799;51.440;-2.534;2024-02-26T05:22:28;7.60;;;1.55;;
48987;SDS011;34799;51.440;-2.534;2024-02-26T05:25:04;3.92;;;1.23;;
48987;SDS011;34799;51.440;-2.534;2024-02-26T05:27:48;8.05;;;1.50;;
48987;SDS011;34799;51.440;-2.534;2024-02-26T05:30:21;9.95;;;1.58;;
48987;SDS011;34799;51.440;-2.534;2024-02-26T05:32:52;4.35;;;0.90;;
48987;SDS011;34799;51.440;-2.534;2024-02-26T05:35:35;3.85;;;0.93;;
48987;SDS011;34799;51.440;-2.534;2024-02-26T05:38:11;4.95;;;0.95;;
48987;SDS011;34799;51.440;-2.534;2024-02-26T05:40:50;3.90;;;1.23;;
48987;SDS011;34799;51.440;-2.534;2024-02-26T05:43:21;3.75;;;0.68;;
48987;SDS011;34799;51.440;-2.534;2024-02-26T05:45:53;5.13;;;0.80;;
48987;SDS011;34799;51.440;-2.534;2024-02-26T05:48:26;3.47;;;0.63;;
48987;SDS011;34799;51.440;-2.534;2024-02-26T05:50:56;3.17;;;1.10;;
48987;SDS011;34799;51.440;-2.534;2024-02-26T05:53:29;1.90;;;0.63;;
48987;SDS011;34799;51.440;-2.534;2024-02-26T05:56:13;5.95;;;0.65;;
48987;SDS011;34799;51.440;-2.534;2024-02-26T05:58:46;6.47;;;0.93;;
48987;SDS011;34799;51.440;-2.534;2024-02-26T06:01:16;2.13;;;0.85;;
48987;SDS011;34799;51.440;-2.534;2024-02-26T06:03:53;1.73;;;0.50;;
48987;SDS011;34799;51.440;-2.534;2024-02-26T06:06:49;2.30;;;0.70;;
48987;SDS011;34799;51.440;-2.534;2024-02-26T06:09:41;1.92;;;0.68;;
48987;SDS011;34799;51.440;-2.534;2024-02-26T06:12:20;5.80;;;0.70;;
48987;SDS011;34799;51.440;-2.534;2024-02-26T06:15:03;2.05;;;0.60;;
48987;SDS011;34799;51.440;-2.534;2024-02-26T06:17:43;1.65;;;0.85;;
48987;SDS011;34799;51.440;-2.534;2024-02-26T06:20:26;1.85;;;0.32;;
48987;SDS011;34799;51.440;-2.534;2024-02-26T06:23:13;4.45;;;0.63;;
48987;SDS011;34799;51.440;-2.534;2024-02-26T06:26:05;1.77;;;0.40;;
48987;SDS011;34799;51.440;-2.534;2024-02-26T06:28:40;5.28;;;0.52;;
48987;SDS011;34799;51.440;-2.534;2024-02-26T06:31:08;2.53;;;0.40;;
48987;SDS011;34799;51.440;-2.534;2024-02-26T06:33:42;4.20;;;0.60;;
48987;SDS011;34799;51.440;-2.534;2024-02-26T06:36:15;1.85;;;0.40;;
48987;SDS011;34799;51.440;-2.534;2024-02-26T06:38:59;3.33;;;0.50;;
48987;SDS011;34799;51.440;-2.534;2024-02-26T06:41:35;3.53;;;0.45;;
48987;SDS011;34799;51.440;-2.534;2024-02-26T06:44:37;3.08;;;0.60;;
48987;SDS011;34799;51.440;-2.534;2024-02-26T06:47:10;2.50;;;0.45;;
48987;SDS011;34799;51.440;-2.534;2024-02-26T06:50:07;3.30;;;0.30;;
48987;SDS011;34799;51.440;-2.534;2024-02-26T06:53:01;4.10;;;0.47;;
48987;SDS011;34799;51.440;-2.534;2024-02-26T06:55:42;0.80;;;0.38;;
48987;SDS011;34799;51.440;-2.534;2024-02-26T06:58:16;3.40;;;0.30;;
48987;SDS011;34799;51.440;-2.534;2024-02-26T07:01:08;3.50;;;0.60;;
48987;SDS011;34799;51.440;-2.534;2024-02-26T07:04:02;6.28;;;0.60;;
48987;SDS011;34799;51.440;-2.534;2024-02-26T07:06:41;1.92;;;0.40;;
48987;SDS011;34799;51.440;-2.534;2024-02-26T07:09:17;5.80;;;0.57;;
48987;SDS011;34799;51.440;-2.534;2024-02-26T07:11:59;4.88;;;0.73;;
48987;SDS011;34799;51.440;-2.534;2024-02-26T07:14:29;4.90;;;0.65;;
48987;SDS011;34799;51.440;-2.534;2024-02-26T07:17:10;1.08;;;0.28;;
48987;SDS011;34799;51.440;-2.534;2024-02-26T07:19:49;5.70;;;0.55;;
48987;SDS011;34799;51.440;-2.534;2024-02-26T07:22:24;0.95;;;0.30;;
48987;SDS011;34799;51.440;-2.534;2024-02-26T07:24:54;4.90;;;0.43;;
48987;SDS011;34799;51.440;-2.534;2024-02-26T07:27:57;1.92;;;0.40;;
48987;SDS011;34799;51.440;-2.534;2024-02-26T07:30:39;5.80;;;0.82;;
48987;SDS011;34799;51.440;-2.534;2024-02-26T07:33:32;5.43;;;0.45;;
48987;SDS011;34799;51.440;-2.534;2024-02-26T07:36:15;3.60;;;0.40;;
48987;SDS011;34799;51.440;-2.534;2024-02-26T07:39:35;2.22;;;0.20;;
48987;SDS011;34799;51.440;-2.534;2024-02-26T07:45:26;2.47;;;0.32;;
48987;SDS011;34799;51.440;-2.534;2024-02-26T07:50:59;2.80;;;0.40;;
48987;SDS011;34799;51.440;-2.534;2024-02-26T07:53:40;1.85;;;0.40;;
48987;SDS011;34799;51.440;-2.534;2024-02-26T07:56:21;1.92;;;0.20;;
48987;SDS011;34799;51.440;-2.534;2024-02-26T07:59:01;1.77;;;0.45;;
48987;SDS011;34799;51.440;-2.534;2024-02-26T08:01:50;2.28;;;0.30;;
48987;SDS011;34799;51.440;-2.534;2024-02-26T08:04:31;4.43;;;0.30;;
48987;SDS011;34799;51.440;-2.534;2024-02-26T08:07:30;3.33;;;0.50;;
48987;SDS011;34799;51.440;-2.534;2024-02-26T08:10:41;3.25;;;0.38;;
48987;SDS011;34799;51.440;-2.534;2024-02-26T08:14:22;2.13;;;0.40;;
48987;SDS011;34799;51.440;-2.534;2024-02-26T08:20:41;1.88;;;0.32;;
48987;SDS011;34799;51.440;-2.534;2024-02-26T08:23:35;1.35;;;0.22;;
48987;SDS011;34799;51.440;-2.534;2024-02-26T08:26:07;1.95;;;0.30;;
48987;SDS011;34799;51.440;-2.534;2024-02-26T08:28:48;4.93;;;0.20;;
48987;SDS011;34799;51.440;-2.534;2024-02-26T08:31:29;3.88;;;0.65;;
48987;SDS011;34799;51.440;-2.534;2024-02-26T08:34:05;6.15;;;0.70;;
48987;SDS011;34799;51.440;-2.534;2024-02-26T08:36:50;2.83;;;0.50;;
48987;SDS011;34799;51.440;-2.534;2024-02-26T08:39:22;6.93;;;0.50;;
48987;SDS011;34799;51.440;-2.534;2024-02-26T08:41:59;1.75;;;0.28;;
48987;SDS011;34799;51.440;-2.534;2024-02-26T08:44:29;1.10;;;0.30;;
48987;SDS011;34799;51.440;-2.534;2024-02-26T08:47:09;2.10;;;0.40;;
48987;SDS011;34799;51.440;-2.534;2024-02-26T08:50:01;2.78;;;0.30;;
48987;SDS011;34799;51.440;-2.534;2024-02-26T08:52:47;3.78;;;0.38;;
48987;SDS011;34799;51.440;-2.534;2024-02-26T09:03:11;4.15;;;0.70;;
48987;SDS011;34799;51.440;-2.534;2024-02-26T09:06:10;5.22;;;0.45;;
48987;SDS011;34799;51.440;-2.534;2024-02-26T09:18:26;5.78;;;0.50;;
48987;SDS011;34799;51.440;-2.534;2024-02-26T09:21:05;5.65;;;0.70;;
48987;SDS011;34799;51.440;-2.534;2024-02-26T09:28:55;3.33;;;0.40;;
48987;SDS011;34799;51.440;-2.534;2024-02-26T09:31:28;4.75;;;0.50;;
48987;SDS011;34799;51.440;-2.534;2024-02-26T09:34:16;5.15;;;0.60;;
48987;SDS011;34799;51.440;-2.534;2024-02-26T09:36:56;4.57;;;0.70;;
48987;SDS011;34799;51.440;-2.534;2024-02-26T09:43:07;2.17;;;0.40;;
48987;SDS011;34799;51.440;-2.534;2024-02-26T09:57:03;2.43;;;0.40;;
48987;SDS011;34799;51.440;-2.534;2024-02-26T09:59:34;2.22;;;0.47;;
48987;SDS011;34799;51.440;-2.534;2024-02-26T10:02:14;2.03;;;0.40;;
48987;SDS011;34799;51.440;-2.534;2024-02-26T10:04:43;7.70;;;0.55;;
48987;SDS011;34799;51.440;-2.534;2024-02-26T10:07:11;1.55;;;0.20;;
48987;SDS011;34799;51.440;-2.534;2024-02-26T10:09:40;4.43;;;0.70;;
48987;SDS011;34799;51.440;-2.534;2024-02-26T10:12:09;3.92;;;0.55;;
48987;SDS011;34799;51.440;-2.534;2024-02-26T10:14:38;4.10;;;0.40;;
48987;SDS011;34799;51.440;-2.534;2024-02-26T10:17:07;0.73;;;0.30;;
48987;SDS011;34799;51.440;-2.534;2024-02-26T10:19:36;2.70;;;0.40;;
48987;SDS011;34799;51.440;-2.534;2024-02-26T10:22:04;2.65;;;0.30;;
48987;SDS011;34799;51.440;-2.534;2024-02-26T10:24:31;3.22;;;0.50;;
48987;SDS011;34799;51.440;-2.534;2024-02-26T10:27:00;4.82;;;0.73;;
48987;SDS011;34799;51.440;-2.534;2024-02-26T10:29:29;4.13;;;0.55;;
48987;SDS011;34799;51.440;-2.534;2024-02-26T10:31:56;2.03;;;0.40;;
48987;SDS011;34799;51.440;-2.534;2024-02-26T10:34:24;4.22;;;0.77;;
48987;SDS011;34799;51.440;-2.534;2024-02-26T10:36:53;1.38;;;0.50;;
48987;SDS011;34799;51.440;-2.534;2024-02-26T10:39:20;1.02;;;0.30;;
48987;SDS011;34799;51.440;-2.534;2024-02-26T10:41:48;3.45;;;0.40;;
48987;SDS011;34799;51.440;-2.534;2024-02-26T10:44:15;4.75;;;0.45;;
48987;SDS011;34799;51.440;-2.534;2024-02-26T10:46:44;1.75;;;0.30;;
48987;SDS011;34799;51.440;-2.534;2024-02-26T10:49:16;1.65;;;0.65;;
48987;SDS011;34799;51.440;-2.534;2024-02-26T10:51:45;2.80;;;0.30;;
48987;SDS011;34799;51.440;-2.534;2024-02-26T10:54:20;2.60;;;0.40;;
48987;SDS011;34799;51.440;-2.534;2024-02-26T10:56:50;3.35;;;0.57;;
48987;SDS011;34799;51.440;-2.534;2024-02-26T10:59:17;0.85;;;0.30;;
48987;SDS011;34799;51.440;-2.534;2024-02-26T11:01:50;0.80;;;0.30;;
48987;SDS011;34799;51.440;-2.534;2024-02-26T11:04:19;3.30;;;0.50;;
48987;SDS011;34799;51.440;-2.534;2024-02-26T11:06:49;3.17;;;0.55;;
48987;SDS011;34799;51.440;-2.534;2024-02-26T11:09:18;2.88;;;0.65;;
48987;SDS011;34799;51.440;-2.534;2024-02-26T11:11:47;1.33;;;0.40;;
48987;SDS011;34799;51.440;-2.534;2024-02-26T11:14:17;2.22;;;0.60;;
48987;SDS011;34799;51.440;-2.534;2024-02-26T11:16:44;3.80;;;0.60;;
48987;SDS011;34799;51.440;-2.534;2024-02-26T11:19:11;1.02;;;0.40;;
48987;SDS011;34799;51.440;-2.534;2024-02-26T11:21:40;1.85;;;0.50;;
48987;SDS011;34799;51.440;-2.534;2024-02-26T11:24:12;1.77;;;0.40;;
48987;SDS011;34799;51.440;-2.534;2024-02-26T11:26:56;3.50;;;0.68;;
48987;SDS011;34799;51.440;-2.534;2024-02-26T11:31:59;2.28;;;0.50;;
48987;SDS011;34799;51.440;-2.534;2024-02-26T11:34:27;5.03;;;0.40;;
48987;SDS011;34799;51.440;-2.534;2024-02-26T11:36:55;1.73;;;0.32;;
48987;SDS011;34799;51.440;-2.534;2024-02-26T11:39:23;1.45;;;0.52;;
48987;SDS011;34799;51.440;-2.534;2024-02-26T11:41:53;3.20;;;0.40;;
48987;SDS011;34799;51.440;-2.534;2024-02-26T11:44:39;0.80;;;0.32;;
48987;SDS011;34799;51.440;-2.534;2024-02-26T11:47:13;3.13;;;0.50;;
48987;SDS011;34799;51.440;-2.534;2024-02-26T11:49:44;1.08;;;0.47;;
48987;SDS011;34799;51.440;-2.534;2024-02-26T11:52:13;4.03;;;0.50;;
48987;SDS011;34799;51.440;-2.534;2024-02-26T11:54:49;3.65;;;0.50;;
48987;SDS011;34799;51.440;-2.534;2024-02-26T12:00:11;2.65;;;0.50;;
48987;SDS011;34799;51.440;-2.534;2024-02-26T12:05:14;1.83;;;0.57;;
48987;SDS011;34799;51.440;-2.534;2024-02-26T12:07:44;2.05;;;0.70;;
48987;SDS011;34799;51.440;-2.534;2024-02-26T12:13:06;0.73;;;0.32;;
48987;SDS011;34799;51.440;-2.534;2024-02-26T12:15:41;2.58;;;0.55;;
48987;SDS011;34799;51.440;-2.534;2024-02-26T12:18:16;2.17;;;0.60;;
48987;SDS011;34799;51.440;-2.534;2024-02-26T12:20:44;2.83;;;0.52;;
48987;SDS011;34799;51.440;-2.534;2024-02-26T12:23:16;4.28;;;0.63;;
48987;SDS011;34799;51.440;-2.534;2024-02-26T12:25:43;2.50;;;0.50;;
48987;SDS011;34799;51.440;-2.534;2024-02-26T12:28:11;3.85;;;0.50;;
48987;SDS011;34799;51.440;-2.534;2024-02-26T12:30:38;2.35;;;0.40;;
48987;SDS011;34799;51.440;-2.534;2024-02-26T12:33:06;1.60;;;0.50;;
48987;SDS011;34799;51.440;-2.534;2024-02-26T12:35:36;2.70;;;0.88;;
48987;SDS011;34799;51.440;-2.534;2024-02-26T12:38:03;1.33;;;0.57;;
48987;SDS011;34799;51.440;-2.534;2024-02-26T12:40:30;1.17;;;0.40;;
48987;SDS011;34799;51.440;-2.534;2024-02-26T12:42:58;2.30;;;0.45;;
48987;SDS011;34799;51.440;-2.534;2024-02-26T12:45:26;1.85;;;0.57;;
48987;SDS011;34799;51.440;-2.534;2024-02-26T12:47:55;1.67;;;0.40;;
48987;SDS011;34799;51.440;-2.534;2024-02-26T12:50:24;4.32;;;0.75;;
48987;SDS011;34799;51.440;-2.534;2024-02-26T12:52:51;1.83;;;0.30;;
48987;SDS011;34799;51.440;-2.534;2024-02-26T12:55:19;5.15;;;0.88;;
48987;SDS011;34799;51.440;-2.534;2024-02-26T12:57:48;0.93;;;0.30;;
48987;SDS011;34799;51.440;-2.534;2024-02-26T13:00:18;1.65;;;0.43;;
48987;SDS011;34799;51.440;-2.534;2024-02-26T13:02:48;2.40;;;0.40;;
48987;SDS011;34799;51.440;-2.534;2024-02-26T13:05:17;2.65;;;0.50;;
48987;SDS011;34799;51.440;-2.534;2024-02-26T13:07:46;3.60;;;0.63;;
48987;SDS011;34799;51.440;-2.534;2024-02-26T13:10:13;2.10;;;0.20;;
48987;SDS011;34799;51.440;-2.534;2024-02-26T13:12:44;3.72;;;0.40;;
48987;SDS011;34799;51.440;-2.534;2024-02-26T13:15:16;5.30;;;0.40;;
48987;SDS011;34799;51.440;-2.534;2024-02-26T13:17:44;3.20;;;0.35;;
48987;SDS011;34799;51.440;-2.534;2024-02-26T13:20:12;3.63;;;0.40;;
48987;SDS011;34799;51.440;-2.534;2024-02-26T13:22:41;3.45;;;0.30;;
48987;SDS011;34799;51.440;-2.534;2024-02-26T13:25:09;1.17;;;0.35;;
48987;SDS011;34799;51.440;-2.534;2024-02-26T13:27:36;3.90;;;0.30;;
48987;SDS011;34799;51.440;-2.534;2024-02-26T13:30:04;2.13;;;0.30;;
48987;SDS011;34799;51.440;-2.534;2024-02-26T13:32:39;1.20;;;0.38;;
48987;SDS011;34799;51.440;-2.534;2024-02-26T13:35:08;2.22;;;0.30;;
48987;SDS011;34799;51.440;-2.534;2024-02-26T13:37:37;4.72;;;0.75;;
48987;SDS011;34799;51.440;-2.534;2024-02-26T13:40:07;4.55;;;0.30;;
48987;SDS011;34799;51.440;-2.534;2024-02-26T13:42:36;1.58;;;0.28;;
48987;SDS011;34799;51.440;-2.534;2024-02-26T13:45:06;0.73;;;0.20;;
48987;SDS011;34799;51.440;-2.534;2024-02-26T13:47:33;3.15;;;0.63;;
48987;SDS011;34799;51.440;-2.534;2024-02-26T13:50:01;4.30;;;0.50;;
48987;SDS011;34799;51.440;-2.534;2024-02-26T13:52:29;3.35;;;0.30;;
48987;SDS011;34799;51.440;-2.534;2024-02-26T13:55:00;2.63;;;0.25;;
48987;SDS011;34799;51.440;-2.534;2024-02-26T13:57:29;1.00;;;0.20;;
48987;SDS011;34799;51.440;-2.534;2024-02-26T13:59:56;5.40;;;0.40;;
48987;SDS011;34799;51.440;-2.534;2024-02-26T14:02:23;3.35;;;0.30;;
48987;SDS011;34799;51.440;-2.534;2024-02-26T14:04:50;1.88;;;0.22;;
48987;SDS011;34799;51.440;-2.534;2024-02-26T14:07:18;2.50;;;0.20;;
48987;SDS011;34799;51.440;-2.534;2024-02-26T14:09:45;1.40;;;0.13;;
48987;SDS011;34799;51.440;-2.534;2024-02-26T14:12:14;1.05;;;0.20;;
48987;SDS011;34799;51.440;-2.534;2024-02-26T14:14:43;1.75;;;0.35;;
48987;SDS011;34799;51.440;-2.534;2024-02-26T14:17:12;1.92;;;0.10;;
48987;SDS011;34799;51.440;-2.534;2024-02-26T14:19:41;0.65;;;0.10;;
48987;SDS011;34799;51.440;-2.534;2024-02-26T14:22:11;1.10;;;0.20;;
48987;SDS011;34799;51.440;-2.534;2024-02-26T14:24:38;3.15;;;0.20;;
48987;SDS011;34799;51.440;-2.534;2024-02-26T14:27:09;1.40;;;0.30;;
48987;SDS011;34799;51.440;-2.534;2024-02-26T14:29:41;2.53;;;0.25;;
48987;SDS011;34799;51.440;-2.534;2024-02-26T14:32:10;0.32;;;0.17;;
48987;SDS011;34799;51.440;-2.534;2024-02-26T14:34:38;1.95;;;0.20;;
48987;SDS011;34799;51.440;-2.534;2024-02-26T14:37:05;0.35;;;0.13;;
48987;SDS011;34799;51.440;-2.534;2024-02-26T14:39:32;0.75;;;0.20;;
48987;SDS011;34799;51.440;-2.534;2024-02-26T14:42:00;1.00;;;0.10;;
48987;SDS011;34799;51.440;-2.534;2024-02-26T14:44:28;1.75;;;0.20;;
48987;SDS011;34799;51.440;-2.534;2024-02-26T14:46:57;1.83;;;0.20;;
48987;SDS011;34799;51.440;-2.534;2024-02-26T14:49:25;0.85;;;0.35;;
48987;SDS011;34799;51.440;-2.534;2024-02-26T14:51:52;4.22;;;0.50;;
48987;SDS011;34799;51.440;-2.534;2024-02-26T14:54:19;0.73;;;0.17;;
48987;SDS011;34799;51.440;-2.534;2024-02-26T14:56:47;2.95;;;0.20;;
48987;SDS011;34799;51.440;-2.534;2024-02-26T14:59:16;1.58;;;0.20;;
48987;SDS011;34799;51.440;-2.534;2024-02-26T15:01:43;0.93;;;0.10;;
48987;SDS011;34799;51.440;-2.534;2024-02-26T15:04:12;0.77;;;0.38;;
48987;SDS011;34799;51.440;-2.534;2024-02-26T15:06:39;0.65;;;0.17;;
48987;SDS011;34799;51.440;-2.534;2024-02-26T15:09:07;1.73;;;0.20;;
48987;SDS011;34799;51.440;-2.534;2024-02-26T15:11:39;1.55;;;0.20;;
48987;SDS011;34799;51.440;-2.534;2024-02-26T15:14:07;2.83;;;0.30;;
48987;SDS011;34799;51.440;-2.534;2024-02-26T15:16:35;1.60;;;0.30;;
48987;SDS011;34799;51.440;-2.534;2024-02-26T15:19:03;2.45;;;0.20;;
48987;SDS011;34799;51.440;-2.534;2024-02-26T15:21:30;1.30;;;0.50;;
48987;SDS011;34799;51.440;-2.534;2024-02-26T15:23:57;1.92;;;0.45;;
48987;SDS011;34799;51.440;-2.534;2024-02-26T15:26:27;0.77;;;0.30;;
48987;SDS011;34799;51.440;-2.534;2024-02-26T15:28:54;2.25;;;0.40;;
48987;SDS011;34799;51.440;-2.534;2024-02-26T15:31:21;1.20;;;0.40;;
48987;SDS011;34799;51.440;-2.534;2024-02-26T15:33:48;2.47;;;0.50;;
48987;SDS011;34799;51.440;-2.534;2024-02-26T15:36:16;2.78;;;0.40;;
48987;SDS011;34799;51.440;-2.534;2024-02-26T15:38:43;3.30;;;0.43;;
48987;SDS011;34799;51.440;-2.534;2024-02-26T15:41:14;1.45;;;0.40;;
48987;SDS011;34799;51.440;-2.534;2024-02-26T15:43:41;2.60;;;0.20;;
48987;SDS011;34799;51.440;-2.534;2024-02-26T15:46:10;1.85;;;0.40;;
48987;SDS011;34799;51.440;-2.534;2024-02-26T15:48:37;2.45;;;0.30;;
48987;SDS011;34799;51.440;-2.534;2024-02-26T15:51:05;0.63;;;0.30;;
48987;SDS011;34799;51.440;-2.534;2024-02-26T15:53:32;1.17;;;0.30;;
48987;SDS011;34799;51.440;-2.534;2024-02-26T15:56:00;2.17;;;0.45;;
48987;SDS011;34799;51.440;-2.534;2024-02-26T15:58:28;3.05;;;0.47;;
48987;SDS011;34799;51.440;-2.534;2024-02-26T16:00:55;1.55;;;0.40;;
48987;SDS011;34799;51.440;-2.534;2024-02-26T16:03:24;2.42;;;0.60;;
48987;SDS011;34799;51.440;-2.534;2024-02-26T16:05:52;3.05;;;0.32;;
48987;SDS011;34799;51.440;-2.534;2024-02-26T16:08:19;2.45;;;0.40;;
48987;SDS011;34799;51.440;-2.534;2024-02-26T16:10:48;2.58;;;0.47;;
48987;SDS011;34799;51.440;-2.534;2024-02-26T16:13:16;2.97;;;0.57;;
48987;SDS011;34799;51.440;-2.534;2024-02-26T16:15:48;2.17;;;0.40;;
48987;SDS011;34799;51.440;-2.534;2024-02-26T16:18:19;1.88;;;0.40;;
48987;SDS011;34799;51.440;-2.534;2024-02-26T16:20:47;1.83;;;0.55;;
48987;SDS011;34799;51.440;-2.534;2024-02-26T16:23:15;1.95;;;0.60;;
48987;SDS011;34799;51.440;-2.534;2024-02-26T16:25:43;1.75;;;0.40;;
48987;SDS011;34799;51.440;-2.534;2024-02-26T16:28:11;1.52;;;0.40;;
48987;SDS011;34799;51.440;-2.534;2024-02-26T16:30:38;1.70;;;0.40;;
48987;SDS011;34799;51.440;-2.534;2024-02-26T16:33:06;1.15;;;0.38;;
48987;SDS011;34799;51.440;-2.534;2024-02-26T16:35:34;1.40;;;0.40;;